Aviation Digital Data Service (ADDS)

Output produced by METARs form (2316 UTC 30 July 2014)
found at http://aviationweather.gov/adds/metars/
 
KAUG 301748Z 3018/3118 VRB05KT P6SM BKN050 
     FM302000 19006KT P6SM SCT050 
     FM310000 VRB03KT P6SM SKC 
     FM310700 VRB03KT 1/2SM FG VV002 
     FM311300 19007KT P6SM BKN050